sensor_id;sensor_type;location;lat;lon;timestamp;pressure;altitude;pressure_sealevel;temperature;humidity
23223;BME280;11780;13.904;100.620;2023-05-09T00:01:15;100814.75;;;32.95;63.14
23223;BME280;11780;13.904;100.620;2023-05-09T00:03:45;100811.16;;;32.95;63.19
23223;BME280;11780;13.904;100.620;2023-05-09T00:06:16;100828.59;;;32.95;63.13
23223;BME280;11780;13.904;100.620;2023-05-09T00:08:46;100832.50;;;32.94;63.16
23223;BME280;11780;13.904;100.620;2023-05-09T00:11:17;100833.31;;;32.95;63.05
23223;BME280;11780;13.904;100.620;2023-05-09T00:13:50;100843.13;;;32.92;63.10
23223;BME280;11780;13.904;100.620;2023-05-09T00:16:21;100843.13;;;32.92;63.09
23223;BME280;11780;13.904;100.620;2023-05-09T00:18:53;100848.31;;;32.94;63.11
23223;BME280;11780;13.904;100.620;2023-05-09T00:21:23;100851.91;;;32.94;63.17
23223;BME280;11780;13.904;100.620;2023-05-09T00:23:53;100854.69;;;32.94;63.15
23223;BME280;11780;13.904;100.620;2023-05-09T00:26:24;100862.81;;;33.00;63.10
23223;BME280;11780;13.904;100.620;2023-05-09T00:28:55;100866.38;;;33.00;63.01
23223;BME280;11780;13.904;100.620;2023-05-09T00:31:25;100860.34;;;32.98;63.34
23223;BME280;11780;13.904;100.620;2023-05-09T00:33:55;100868.00;;;33.01;63.23
23223;BME280;11780;13.904;100.620;2023-05-09T00:36:26;100877.94;;;33.02;63.25
23223;BME280;11780;13.904;100.620;2023-05-09T00:38:56;100882.34;;;33.03;63.25
23223;BME280;11780;13.904;100.620;2023-05-09T00:41:26;100886.25;;;33.02;63.26
23223;BME280;11780;13.904;100.620;2023-05-09T00:43:57;100886.72;;;33.04;63.33
23223;BME280;11780;13.904;100.620;2023-05-09T00:46:27;100887.53;;;33.05;63.09
23223;BME280;11780;13.904;100.620;2023-05-09T00:48:58;100898.28;;;33.06;63.25
23223;BME280;11780;13.904;100.620;2023-05-09T00:51:28;100895.53;;;33.06;63.22
23223;BME280;11780;13.904;100.620;2023-05-09T00:53:59;100897.16;;;33.07;63.34
23223;BME280;11780;13.904;100.620;2023-05-09T00:56:30;100907.53;;;33.10;63.24
23223;BME280;11780;13.904;100.620;2023-05-09T00:59:00;100909.03;;;33.08;63.39
23223;BME280;11780;13.904;100.620;2023-05-09T01:01:31;100909.88;;;33.08;63.54
23223;BME280;11780;13.904;100.620;2023-05-09T01:04:01;100919.94;;;33.13;63.53
23223;BME280;11780;13.904;100.620;2023-05-09T01:06:49;100916.34;;;33.13;63.43
23223;BME280;11780;13.904;100.620;2023-05-09T01:26:12;100922.19;;;33.20;63.81
23223;BME280;11780;13.904;100.620;2023-05-09T01:31:47;100921.50;;;33.23;63.87
23223;BME280;11780;13.904;100.620;2023-05-09T01:34:20;100923.13;;;33.24;64.04
23223;BME280;11780;13.904;100.620;2023-05-09T01:36:54;100915.28;;;33.26;63.87
23223;BME280;11780;13.904;100.620;2023-05-09T01:39:27;100922.78;;;33.25;64.18
23223;BME280;11780;13.904;100.620;2023-05-09T01:42:02;100922.13;;;33.29;64.13
23223;BME280;11780;13.904;100.620;2023-05-09T01:44:37;100921.78;;;33.30;64.11
23223;BME280;11780;13.904;100.620;2023-05-09T01:47:08;100915.09;;;33.31;64.57
23223;BME280;11780;13.904;100.620;2023-05-09T01:49:40;100927.16;;;33.35;64.54
23223;BME280;11780;13.904;100.620;2023-05-09T01:52:15;100919.13;;;33.34;64.60
23223;BME280;11780;13.904;100.620;2023-05-09T01:54:46;100920.13;;;33.38;64.83
23223;BME280;11780;13.904;100.620;2023-05-09T01:57:18;100910.19;;;33.37;64.74
23223;BME280;11780;13.904;100.620;2023-05-09T01:59:50;100911.00;;;33.37;64.64
23223;BME280;11780;13.904;100.620;2023-05-09T02:02:21;100915.06;;;33.40;64.86
23223;BME280;11780;13.904;100.620;2023-05-09T02:04:55;100906.59;;;33.36;64.82
23223;BME280;11780;13.904;100.620;2023-05-09T02:07:27;100912.63;;;33.38;64.76
23223;BME280;11780;13.904;100.620;2023-05-09T02:09:59;100914.25;;;33.39;64.74
23223;BME280;11780;13.904;100.620;2023-05-09T02:12:31;100909.50;;;33.40;64.90
23223;BME280;11780;13.904;100.620;2023-05-09T02:15:02;100906.38;;;33.42;64.88
23223;BME280;11780;13.904;100.620;2023-05-09T02:17:33;100908.00;;;33.43;64.83
23223;BME280;11780;13.904;100.620;2023-05-09T02:20:04;100909.63;;;33.44;64.74
23223;BME280;11780;13.904;100.620;2023-05-09T02:22:35;100911.25;;;33.45;65.11
23223;BME280;11780;13.904;100.620;2023-05-09T02:25:06;100919.09;;;33.43;65.18
23223;BME280;11780;13.904;100.620;2023-05-09T02:27:38;100917.47;;;33.42;65.19
23223;BME280;11780;13.904;100.620;2023-05-09T02:30:18;100916.34;;;33.43;65.31
23223;BME280;11780;13.904;100.620;2023-05-09T02:33:01;100919.94;;;33.43;65.24
23223;BME280;11780;13.904;100.620;2023-05-09T02:35:33;100923.19;;;33.45;64.98
23223;BME280;11780;13.904;100.620;2023-05-09T02:38:04;100920.72;;;33.44;65.25
23223;BME280;11780;13.904;100.620;2023-05-09T02:40:36;100922.03;;;33.46;65.00
23223;BME280;11780;13.904;100.620;2023-05-09T02:43:06;100919.72;;;33.48;64.96
23223;BME280;11780;13.904;100.620;2023-05-09T02:45:37;100917.41;;;33.50;64.89
23223;BME280;11780;13.904;100.620;2023-05-09T02:48:07;100922.47;;;33.48;64.92
23223;BME280;11780;13.904;100.620;2023-05-09T02:50:38;100920.53;;;33.49;64.96
23223;BME280;11780;13.904;100.620;2023-05-09T02:53:11;100918.25;;;33.51;64.70
23223;BME280;11780;13.904;100.620;2023-05-09T02:55:41;100908.28;;;33.50;64.67
23223;BME280;11780;13.904;100.620;2023-05-09T02:58:11;100915.94;;;33.53;64.50
23223;BME280;11780;13.904;100.620;2023-05-09T03:00:43;100913.66;;;33.55;64.12
23223;BME280;11780;13.904;100.620;2023-05-09T03:03:14;100907.63;;;33.53;64.25
23223;BME280;11780;13.904;100.620;2023-05-09T03:05:46;100905.66;;;33.53;64.42
23223;BME280;11780;13.904;100.620;2023-05-09T03:08:17;100905.31;;;33.55;64.05
23223;BME280;11780;13.904;100.620;2023-05-09T03:10:47;100894.91;;;33.52;64.40
23223;BME280;11780;13.904;100.620;2023-05-09T03:13:18;100899.78;;;33.55;64.17
23223;BME280;11780;13.904;100.620;2023-05-09T03:15:48;100890.97;;;33.53;64.29
23223;BME280;11780;13.904;100.620;2023-05-09T03:18:20;100885.44;;;33.53;64.45
23223;BME280;11780;13.904;100.620;2023-05-09T03:20:50;100890.28;;;33.56;63.92
23223;BME280;11780;13.904;100.620;2023-05-09T03:23:21;100888.34;;;33.57;63.76
23223;BME280;11780;13.904;100.620;2023-05-09T03:25:52;100878.41;;;33.55;63.84
23223;BME280;11780;13.904;100.620;2023-05-09T03:28:22;100883.16;;;33.55;64.49
23223;BME280;11780;13.904;100.620;2023-05-09T03:30:57;100873.63;;;33.56;64.08
23223;BME280;11780;13.904;100.620;2023-05-09T03:33:29;100874.94;;;33.59;63.57
23223;BME280;11780;13.904;100.620;2023-05-09T03:36:00;100864.66;;;33.59;63.69
23223;BME280;11780;13.904;100.620;2023-05-09T03:38:31;100861.88;;;33.59;63.74
23223;BME280;11780;13.904;100.620;2023-05-09T03:41:01;100855.84;;;33.57;64.28
23223;BME280;11780;13.904;100.620;2023-05-09T03:43:32;100854.72;;;33.58;63.99
23223;BME280;11780;13.904;100.620;2023-05-09T03:46:02;100850.78;;;33.59;63.87
23223;BME280;11780;13.904;100.620;2023-05-09T03:48:33;100852.41;;;33.60;63.46
23223;BME280;11780;13.904;100.620;2023-05-09T03:51:05;100845.59;;;33.58;63.80
23223;BME280;11780;13.904;100.620;2023-05-09T03:53:38;100837.38;;;33.61;63.79
23223;BME280;11780;13.904;100.620;2023-05-09T03:56:09;100843.63;;;33.58;64.12
23223;BME280;11780;13.904;100.620;2023-05-09T03:58:45;100835.66;;;33.57;64.44
23223;BME280;11780;13.904;100.620;2023-05-09T04:01:16;100834.97;;;33.60;64.76
23223;BME280;11780;13.904;100.620;2023-05-09T04:03:47;100824.19;;;33.58;64.81
23223;BME280;11780;13.904;100.620;2023-05-09T04:06:19;100820.63;;;33.58;65.00
23223;BME280;11780;13.904;100.620;2023-05-09T04:08:49;100811.94;;;33.59;64.65
23223;BME280;11780;13.904;100.620;2023-05-09T04:11:20;100801.69;;;33.60;64.62
23223;BME280;11780;13.904;100.620;2023-05-09T04:13:50;100798.91;;;33.60;64.28
23223;BME280;11780;13.904;100.620;2023-05-09T04:16:31;100795.31;;;33.59;64.30
23223;BME280;11780;13.904;100.620;2023-05-09T04:19:01;100784.56;;;33.58;64.34
23223;BME280;11780;13.904;100.620;2023-05-09T04:21:32;100790.91;;;33.58;64.75
23223;BME280;11780;13.904;100.620;2023-05-09T04:24:03;100792.69;;;33.63;64.05
23223;BME280;11780;13.904;100.620;2023-05-09T04:26:40;100784.50;;;33.66;63.78
23223;BME280;11780;13.904;100.620;2023-05-09T04:29:15;100777.44;;;33.69;63.57
23223;BME280;11780;13.904;100.620;2023-05-09T04:31:50;100763.78;;;33.64;63.86
23223;BME280;11780;13.904;100.620;2023-05-09T04:34:24;100757.06;;;33.65;63.75
23223;BME280;11780;13.904;100.620;2023-05-09T04:37:03;100749.22;;;33.67;63.16
23223;BME280;11780;13.904;100.620;2023-05-09T04:39:33;100748.06;;;33.68;62.92
23223;BME280;11780;13.904;100.620;2023-05-09T04:42:13;100747.75;;;33.69;62.97
23223;BME280;11780;13.904;100.620;2023-05-09T04:44:43;100750.97;;;33.71;63.04
23223;BME280;11780;13.904;100.620;2023-05-09T04:47:14;100752.16;;;33.70;62.85
23223;BME280;11780;13.904;100.620;2023-05-09T04:49:44;100749.22;;;33.67;62.90
23223;BME280;11780;13.904;100.620;2023-05-09T04:52:15;100750.84;;;33.68;63.19
23223;BME280;11780;13.904;100.620;2023-05-09T04:54:46;100758.50;;;33.71;62.57
23223;BME280;11780;13.904;100.620;2023-05-09T04:57:20;100757.81;;;33.74;62.41
23223;BME280;11780;13.904;100.620;2023-05-09T04:59:55;100766.44;;;33.73;61.75
23223;BME280;11780;13.904;100.620;2023-05-09T05:02:26;100784.09;;;33.89;60.80
23223;BME280;11780;13.904;100.620;2023-05-09T05:04:57;100775.50;;;33.82;61.19
23223;BME280;11780;13.904;100.620;2023-05-09T05:07:41;100769.53;;;33.92;61.28
23223;BME280;11780;13.904;100.620;2023-05-09T05:10:17;100753.06;;;33.87;61.35
23223;BME280;11780;13.904;100.620;2023-05-09T05:12:53;100744.75;;;33.87;61.90
23223;BME280;11780;13.904;100.620;2023-05-09T05:15:23;100745.03;;;33.94;61.99
23223;BME280;11780;13.904;100.620;2023-05-09T05:17:56;100730.56;;;33.89;61.98
23223;BME280;11780;13.904;100.620;2023-05-09T05:20:31;100730.69;;;33.92;62.37
23223;BME280;11780;13.904;100.620;2023-05-09T05:23:01;100739.69;;;33.89;62.37
23223;BME280;11780;13.904;100.620;2023-05-09T05:25:32;100725.13;;;33.92;62.55
23223;BME280;11780;13.904;100.620;2023-05-09T05:28:02;100720.06;;;34.07;62.32
23223;BME280;11780;13.904;100.620;2023-05-09T05:30:33;100714.97;;;33.96;62.43
23223;BME280;11780;13.904;100.620;2023-05-09T05:33:03;100703.88;;;33.96;62.69
23223;BME280;11780;13.904;100.620;2023-05-09T05:35:33;100704.22;;;33.95;62.58
23223;BME280;11780;13.904;100.620;2023-05-09T05:38:04;100706.44;;;34.02;62.56
23223;BME280;11780;13.904;100.620;2023-05-09T05:40:36;100709.44;;;33.96;62.69
23223;BME280;11780;13.904;100.620;2023-05-09T05:43:07;100695.66;;;34.00;62.42
23223;BME280;11780;13.904;100.620;2023-05-09T05:45:38;100688.75;;;33.94;62.48
23223;BME280;11780;13.904;100.620;2023-05-09T05:48:14;100678.91;;;33.96;62.63
23223;BME280;11780;13.904;100.620;2023-05-09T05:50:46;100673.69;;;33.95;62.55
23223;BME280;11780;13.904;100.620;2023-05-09T05:53:19;100667.56;;;34.02;62.25
23223;BME280;11780;13.904;100.620;2023-05-09T05:55:50;100661.09;;;33.97;62.20
23223;BME280;11780;13.904;100.620;2023-05-09T05:58:20;100659.47;;;33.96;62.20
23223;BME280;11780;13.904;100.620;2023-05-09T06:00:53;100655.53;;;33.97;61.91
23223;BME280;11780;13.904;100.620;2023-05-09T06:03:24;100654.03;;;34.00;62.17
23223;BME280;11780;13.904;100.620;2023-05-09T06:06:04;100663.50;;;33.99;61.58
23223;BME280;11780;13.904;100.620;2023-05-09T06:08:35;100659.34;;;34.05;61.86
23223;BME280;11780;13.904;100.620;2023-05-09T06:11:05;100652.97;;;34.05;61.48
23223;BME280;11780;13.904;100.620;2023-05-09T06:13:37;100646.97;;;34.03;61.54
23223;BME280;11780;13.904;100.620;2023-05-09T06:16:10;100635.88;;;34.03;61.52
23223;BME280;11780;13.904;100.620;2023-05-09T06:18:49;100646.97;;;34.03;61.53
23223;BME280;11780;13.904;100.620;2023-05-09T06:21:22;100639.09;;;34.05;61.14
23223;BME280;11780;13.904;100.620;2023-05-09T06:23:53;100641.88;;;34.05;60.80
23223;BME280;11780;13.904;100.620;2023-05-09T06:26:38;100630.69;;;34.01;61.01
23223;BME280;11780;13.904;100.620;2023-05-09T06:29:08;100634.59;;;34.00;61.14
23223;BME280;11780;13.904;100.620;2023-05-09T06:31:39;100629.16;;;34.04;60.87
23223;BME280;11780;13.904;100.620;2023-05-09T06:34:09;100625.22;;;34.05;60.88
23223;BME280;11780;13.904;100.620;2023-05-09T06:36:40;100625.50;;;33.99;61.24
23223;BME280;11780;13.904;100.620;2023-05-09T06:39:10;100620.03;;;34.03;60.77
23223;BME280;11780;13.904;100.620;2023-05-09T06:41:40;100614.59;;;34.07;60.65
23223;BME280;11780;13.904;100.620;2023-05-09T06:44:18;100616.22;;;34.08;60.32
23223;BME280;11780;13.904;100.620;2023-05-09T06:46:49;100602.81;;;34.10;60.37
23223;BME280;11780;13.904;100.620;2023-05-09T06:49:19;100599.56;;;34.08;60.30
23223;BME280;11780;13.904;100.620;2023-05-09T06:51:50;100586.16;;;34.10;60.08
23223;BME280;11780;13.904;100.620;2023-05-09T06:54:20;100582.91;;;34.08;59.93
23223;BME280;11780;13.904;100.620;2023-05-09T06:56:50;100566.34;;;34.11;60.02
23223;BME280;11780;13.904;100.620;2023-05-09T06:59:21;100555.97;;;34.08;59.86
23223;BME280;11780;13.904;100.620;2023-05-09T07:01:51;100544.75;;;34.05;60.23
23223;BME280;11780;13.904;100.620;2023-05-09T07:04:21;100546.94;;;34.11;60.01
23223;BME280;11780;13.904;100.620;2023-05-09T07:06:54;100545.78;;;34.12;59.78
23223;BME280;11780;13.904;100.620;2023-05-09T07:09:24;100551.00;;;34.14;59.70
23223;BME280;11780;13.904;100.620;2023-05-09T07:11:59;100536.19;;;34.10;59.79
23223;BME280;11780;13.904;100.620;2023-05-09T07:14:30;100530.53;;;34.06;60.03
23223;BME280;11780;13.904;100.620;2023-05-09T07:17:00;100537.72;;;34.07;60.01
23223;BME280;11780;13.904;100.620;2023-05-09T07:19:50;100520.59;;;34.05;60.07
23223;BME280;11780;13.904;100.620;2023-05-09T07:22:20;100505.91;;;34.05;60.24
23223;BME280;11780;13.904;100.620;2023-05-09T07:24:50;100507.88;;;34.04;59.94
23223;BME280;11780;13.904;100.620;2023-05-09T07:27:20;100493.19;;;34.04;59.90
23223;BME280;11780;13.904;100.620;2023-05-09T07:29:51;100494.09;;;34.08;59.93
23223;BME280;11780;13.904;100.620;2023-05-09T07:32:21;100494.00;;;34.04;59.82
23223;BME280;11780;13.904;100.620;2023-05-09T07:34:51;100488.22;;;34.09;59.85
23223;BME280;11780;13.904;100.620;2023-05-09T07:37:22;100472.00;;;34.11;59.62
23223;BME280;11780;13.904;100.620;2023-05-09T07:39:52;100468.78;;;34.09;59.75
23223;BME280;11780;13.904;100.620;2023-05-09T07:42:22;100468.34;;;34.07;59.64
23223;BME280;11780;13.904;100.620;2023-05-09T07:44:53;100464.72;;;34.07;59.62
23223;BME280;11780;13.904;100.620;2023-05-09T07:47:23;100456.16;;;34.12;59.68
23223;BME280;11780;13.904;100.620;2023-05-09T07:49:54;100452.31;;;34.16;59.39
23223;BME280;11780;13.904;100.620;2023-05-09T07:52:24;100457.06;;;34.16;59.05
23223;BME280;11780;13.904;100.620;2023-05-09T07:54:54;100447.47;;;34.13;59.25
23223;BME280;11780;13.904;100.620;2023-05-09T07:57:25;100447.59;;;34.17;58.83
23223;BME280;11780;13.904;100.620;2023-05-09T07:59:55;100451.06;;;34.14;58.72
23223;BME280;11780;13.904;100.620;2023-05-09T08:02:25;100447.47;;;34.13;58.74
23223;BME280;11780;13.904;100.620;2023-05-09T08:04:56;100442.28;;;34.12;59.01
23223;BME280;11780;13.904;100.620;2023-05-09T08:07:26;100439.06;;;34.10;58.91
23223;BME280;11780;13.904;100.620;2023-05-09T08:09:56;100433.97;;;34.12;58.57
23223;BME280;11780;13.904;100.620;2023-05-09T08:12:26;100444.97;;;34.08;58.79
23223;BME280;11780;13.904;100.620;2023-05-09T08:14:57;100454.09;;;34.09;58.75
23223;BME280;11780;13.904;100.620;2023-05-09T08:17:27;100452.94;;;34.10;58.40
23223;BME280;11780;13.904;100.620;2023-05-09T08:19:57;100454.53;;;34.11;58.49
23223;BME280;11780;13.904;100.620;2023-05-09T08:22:28;100456.06;;;34.08;58.48
23223;BME280;11780;13.904;100.620;2023-05-09T08:24:58;100445.16;;;34.15;58.30
23223;BME280;11780;13.904;100.620;2023-05-09T08:27:28;100443.53;;;34.14;58.36
23223;BME280;11780;13.904;100.620;2023-05-09T08:29:59;100431.72;;;34.18;57.58
23223;BME280;11780;13.904;100.620;2023-05-09T08:32:30;100432.97;;;34.20;56.45
23223;BME280;11780;13.904;100.620;2023-05-09T08:35:00;100426.19;;;34.18;57.35
23223;BME280;11780;13.904;100.620;2023-05-09T08:37:30;100430.94;;;34.17;57.16
23223;BME280;11780;13.904;100.620;2023-05-09T08:40:02;100430.22;;;34.20;56.73
23223;BME280;11780;13.904;100.620;2023-05-09T08:42:36;100415.88;;;34.18;57.01
23223;BME280;11780;13.904;100.620;2023-05-09T08:45:11;100404.88;;;34.22;56.45
23223;BME280;11780;13.904;100.620;2023-05-09T08:47:45;100396.00;;;34.16;56.82
23223;BME280;11780;13.904;100.620;2023-05-09T08:50:16;100388.56;;;34.20;56.99
23223;BME280;11780;13.904;100.620;2023-05-09T08:52:47;100385.34;;;34.18;56.61
23223;BME280;11780;13.904;100.620;2023-05-09T08:55:17;100377.47;;;34.20;56.26
23223;BME280;11780;13.904;100.620;2023-05-09T08:57:48;100371.47;;;34.18;56.21
23223;BME280;11780;13.904;100.620;2023-05-09T09:00:20;100375.31;;;34.13;56.02
23223;BME280;11780;13.904;100.620;2023-05-09T09:02:52;100377.75;;;34.15;55.93
23223;BME280;11780;13.904;100.620;2023-05-09T09:05:23;100371.13;;;34.20;56.01
23223;BME280;11780;13.904;100.620;2023-05-09T09:08:09;100367.63;;;34.23;55.43
23223;BME280;11780;13.904;100.620;2023-05-09T09:10:41;100355.00;;;34.25;55.22
23223;BME280;11780;13.904;100.620;2023-05-09T09:13:16;100355.38;;;34.24;54.99
23223;BME280;11780;13.904;100.620;2023-05-09T09:15:47;100351.88;;;34.27;54.77
23223;BME280;11780;13.904;100.620;2023-05-09T09:18:22;100355.38;;;34.24;54.75
23223;BME280;11780;13.904;100.620;2023-05-09T09:20:57;100345.31;;;34.19;55.15
23223;BME280;11780;13.904;100.620;2023-05-09T09:23:29;100349.25;;;34.18;55.43
23223;BME280;11780;13.904;100.620;2023-05-09T09:26:03;100340.69;;;34.23;54.90
23223;BME280;11780;13.904;100.620;2023-05-09T09:28:36;100337.56;;;34.25;54.66
23223;BME280;11780;13.904;100.620;2023-05-09T09:31:22;100339.06;;;34.22;54.59
23223;BME280;11780;13.904;100.620;2023-05-09T09:34:00;100333.50;;;34.22;54.50
23223;BME280;11780;13.904;100.620;2023-05-09T09:36:31;100339.16;;;34.26;54.57
23223;BME280;11780;13.904;100.620;2023-05-09T09:39:04;100332.25;;;34.20;54.47
23223;BME280;11780;13.904;100.620;2023-05-09T09:41:37;100322.69;;;34.17;54.67
23223;BME280;11780;13.904;100.620;2023-05-09T09:44:15;100328.88;;;34.26;54.76
23223;BME280;11780;13.904;100.620;2023-05-09T09:46:50;100336.81;;;34.28;54.40
23223;BME280;11780;13.904;100.620;2023-05-09T09:49:24;100337.66;;;34.28;54.21
23223;BME280;11780;13.904;100.620;2023-05-09T09:51:57;100335.31;;;34.30;54.27
23223;BME280;11780;13.904;100.620;2023-05-09T09:54:28;100338.81;;;34.27;54.15
23223;BME280;11780;13.904;100.620;2023-05-09T09:56:58;100337.66;;;34.28;54.32
23223;BME280;11780;13.904;100.620;2023-05-09T09:59:29;100333.34;;;34.31;54.18
23223;BME280;11780;13.904;100.620;2023-05-09T10:02:02;100327.34;;;34.29;54.14
23223;BME280;11780;13.904;100.620;2023-05-09T10:04:36;100334.88;;;34.28;54.40
23223;BME280;11780;13.904;100.620;2023-05-09T10:07:09;100335.78;;;34.33;54.03
23223;BME280;11780;13.904;100.620;2023-05-09T10:09:41;100343.38;;;34.36;53.95
23223;BME280;11780;13.904;100.620;2023-05-09T10:12:12;100351.25;;;34.34;54.03
23223;BME280;11780;13.904;100.620;2023-05-09T10:14:47;100351.34;;;34.37;53.92
23223;BME280;11780;13.904;100.620;2023-05-09T10:17:17;100366.84;;;34.38;54.11
23223;BME280;11780;13.904;100.620;2023-05-09T10:19:50;100371.13;;;34.36;54.25
23223;BME280;11780;13.904;100.620;2023-05-09T10:22:20;100381.44;;;34.35;54.31
23223;BME280;11780;13.904;100.620;2023-05-09T10:27:26;100394.94;;;34.37;54.22
23223;BME280;11780;13.904;100.620;2023-05-09T10:30:07;100399.78;;;34.40;54.69
23223;BME280;11780;13.904;100.620;2023-05-09T10:32:52;100398.09;;;34.35;54.91
23223;BME280;11780;13.904;100.620;2023-05-09T10:35:32;100399.34;;;34.38;54.77
23223;BME280;11780;13.904;100.620;2023-05-09T10:38:06;100404.56;;;34.39;54.77
23223;BME280;11780;13.904;100.620;2023-05-09T10:40:36;100406.97;;;34.41;54.96
23223;BME280;11780;13.904;100.620;2023-05-09T10:43:07;100418.06;;;34.41;55.03
23223;BME280;11780;13.904;100.620;2023-05-09T10:45:37;100414.63;;;34.44;55.16
23223;BME280;11780;13.904;100.620;2023-05-09T10:48:12;100416.22;;;34.45;55.34
23223;BME280;11780;13.904;100.620;2023-05-09T10:50:44;100415.41;;;34.44;55.39
23223;BME280;11780;13.904;100.620;2023-05-09T10:53:15;100423.75;;;34.44;55.72
23223;BME280;11780;13.904;100.620;2023-05-09T10:55:55;100415.41;;;34.44;55.67
23223;BME280;11780;13.904;100.620;2023-05-09T10:58:28;100427.25;;;34.41;55.93
23223;BME280;11780;13.904;100.620;2023-05-09T11:01:00;100422.50;;;34.42;56.27
23223;BME280;11780;13.904;100.620;2023-05-09T11:03:55;100429.66;;;34.43;56.13
23223;BME280;11780;13.904;100.620;2023-05-09T11:12:00;100423.28;;;34.42;56.07
23223;BME280;11780;13.904;100.620;2023-05-09T11:14:47;100432.81;;;34.41;56.30
23223;BME280;11780;13.904;100.620;2023-05-09T11:20:03;100445.50;;;34.42;56.53
23223;BME280;11780;13.904;100.620;2023-05-09T11:22:41;100462.50;;;34.41;56.74
23223;BME280;11780;13.904;100.620;2023-05-09T11:25:14;100465.53;;;34.36;56.82
23223;BME280;11780;13.904;100.620;2023-05-09T11:27:49;100462.28;;;34.34;56.96
23223;BME280;11780;13.904;100.620;2023-05-09T11:30:20;100456.31;;;34.31;57.51
23223;BME280;11780;13.904;100.620;2023-05-09T11:32:54;100467.75;;;34.30;57.48
23223;BME280;11780;13.904;100.620;2023-05-09T11:35:27;100470.06;;;34.28;58.05
23223;BME280;11780;13.904;100.620;2023-05-09T11:38:00;100471.69;;;34.29;58.69
23223;BME280;11780;13.904;100.620;2023-05-09T11:40:32;100476.44;;;34.28;58.82
23223;BME280;11780;13.904;100.620;2023-05-09T11:43:02;100476.69;;;34.23;59.24
23223;BME280;11780;13.904;100.620;2023-05-09T11:45:33;100465.59;;;34.23;59.38
23223;BME280;11780;13.904;100.620;2023-05-09T11:48:08;100471.84;;;34.20;59.48
23223;BME280;11780;13.904;100.620;2023-05-09T11:50:39;100481.00;;;34.21;59.55
23223;BME280;11780;13.904;100.620;2023-05-09T11:53:10;100483.50;;;34.26;59.33
23223;BME280;11780;13.904;100.620;2023-05-09T11:55:41;100486.53;;;34.21;59.25
23223;BME280;11780;13.904;100.620;2023-05-09T11:58:12;100496.03;;;34.20;59.16
23223;BME280;11780;13.904;100.620;2023-05-09T12:00:45;100496.38;;;34.18;59.41
23223;BME280;11780;13.904;100.620;2023-05-09T12:03:16;100493.94;;;34.16;59.58
23223;BME280;11780;13.904;100.620;2023-05-09T12:05:47;100496.03;;;34.20;59.67
23223;BME280;11780;13.904;100.620;2023-05-09T12:08:17;100493.59;;;34.18;59.72
23223;BME280;11780;13.904;100.620;2023-05-09T12:10:48;100500.31;;;34.17;60.01
23223;BME280;11780;13.904;100.620;2023-05-09T12:13:18;100507.03;;;34.16;59.78
23223;BME280;11780;13.904;100.620;2023-05-09T12:15:48;100535.13;;;34.14;59.97
23223;BME280;11780;13.904;100.620;2023-05-09T12:18:19;100534.44;;;34.18;59.67
23223;BME280;11780;13.904;100.620;2023-05-09T12:20:50;100541.50;;;34.15;60.01
23223;BME280;11780;13.904;100.620;2023-05-09T12:23:20;100550.63;;;34.15;59.97
23223;BME280;11780;13.904;100.620;2023-05-09T12:25:53;100564.16;;;34.17;60.06
23223;BME280;11780;13.904;100.620;2023-05-09T12:28:24;100567.28;;;34.15;60.01
23223;BME280;11780;13.904;100.620;2023-05-09T12:30:54;100575.28;;;34.17;60.36
23223;BME280;11780;13.904;100.620;2023-05-09T12:33:25;100568.09;;;34.16;60.66
23223;BME280;11780;13.904;100.620;2023-05-09T12:38:32;100557.69;;;34.13;60.66
23223;BME280;11780;13.904;100.620;2023-05-09T12:41:07;100557.00;;;34.16;60.70
23223;BME280;11780;13.904;100.620;2023-05-09T13:10:37;100626.28;;;33.88;61.72
23223;BME280;11780;13.904;100.620;2023-05-09T13:13:14;100632.19;;;33.86;61.73
23223;BME280;11780;13.904;100.620;2023-05-09T13:15:45;100641.66;;;33.85;61.97
23223;BME280;11780;13.904;100.620;2023-05-09T13:18:16;100632.88;;;33.95;61.44
23223;BME280;11780;13.904;100.620;2023-05-09T13:20:47;100633.81;;;33.99;61.21
23223;BME280;11780;13.904;100.620;2023-05-09T13:23:18;100653.22;;;33.99;61.33
23223;BME280;11780;13.904;100.620;2023-05-09T13:25:48;100644.78;;;33.96;61.03
23223;BME280;11780;13.904;100.620;2023-05-09T13:28:18;100651.63;;;33.98;60.73
23223;BME280;11780;13.904;100.620;2023-05-09T13:30:49;100657.03;;;33.95;60.52
23223;BME280;11780;13.904;100.620;2023-05-09T13:33:19;100659.47;;;33.96;60.33
23223;BME280;11780;13.904;100.620;2023-05-09T13:35:53;100665.25;;;33.91;60.18
23223;BME280;11780;13.904;100.620;2023-05-09T13:38:23;100672.78;;;33.91;59.79
23223;BME280;11780;13.904;100.620;2023-05-09T13:40:54;100679.13;;;33.91;60.15
23223;BME280;11780;13.904;100.620;2023-05-09T13:43:25;100679.59;;;33.93;60.01
23223;BME280;11780;13.904;100.620;2023-05-09T13:45:57;100677.50;;;33.90;60.23
23223;BME280;11780;13.904;100.620;2023-05-09T13:48:28;100694.41;;;33.97;60.20
23223;BME280;11780;13.904;100.620;2023-05-09T13:50:58;100704.81;;;34.00;60.19
23223;BME280;11780;13.904;100.620;2023-05-09T13:53:29;100713.47;;;33.99;60.42
23223;BME280;11780;13.904;100.620;2023-05-09T13:56:00;100717.97;;;34.04;60.56